Terminal Aerodrome Forecast
Issued by NWS St Louis, MO

Home | Current Version | Previous Version | Text Only | Print | Product List | Glossary On
Versions: 1 2 3 4 5 6 7 8 9 10 11 12 13 14 15 16 17 18 19 20 21 22 23 24 25 26 27
201
FTUS43 KLSX 171503 AAB
TAFSTL
TAF AMD
KSTL 171503Z 1715/1818 VRB04KT P6SM VCSH BKN090
     FM171700 26006KT P6SM VCSH BKN060
     FM172300 32005KT P6SM BKN060
     FM180900 00000KT P6SM BKN025
     FM181500 VRB03KT P6SM VCSH BKN040=

USA.gov is the U.S. government's official web portal to all federal, state and local government web resources and services.